EZY573H EGAA-EGPH
Flight info
| Callsign | EZY573H |
|---|---|
| Flight time | 0h 39m |
| Altitude | 15000 |
| Route | BLACA P600 TUNSO |
| Aircraft | A320/M-SDE2E3FGHIJ1RWXYZ/LB1 |
Departure
| Time | 2026-04-26 12:51 |
|---|---|
| Airport | Belfast International Airport (EGAA) |
Arrival
| Time | 2026-04-26 13:30 |
|---|---|
| Airport | Edinburgh Airport (EGPH) |
| Time | Latitude | Longitude | Altitude | Speed | Heading |
|---|---|---|---|---|---|
| 2026-04-26 12:25 | 54.66180 | -6.21414 | 272 ft | 0 kts | 245° |
| 2026-04-26 12:39 | 54.66183 | -6.21403 | 272 ft | 4 kts | 245° |
| 2026-04-26 12:40 | 54.66195 | -6.21361 | 278 ft | 4 kts | 235° |
| 2026-04-26 12:40 | 54.66205 | -6.21339 | 274 ft | 4 kts | 205° |
| 2026-04-26 12:40 | 54.66218 | -6.21335 | 277 ft | 0 kts | 155° |
| 2026-04-26 12:45 | 54.66212 | -6.21331 | 277 ft | 3 kts | 155° |
| 2026-04-26 12:45 | 54.66174 | -6.21300 | 272 ft | 9 kts | 155° |
| 2026-04-26 12:46 | 54.66108 | -6.21248 | 272 ft | 10 kts | 155° |
| 2026-04-26 12:46 | 54.66054 | -6.21191 | 273 ft | 8 kts | 123° |
| 2026-04-26 12:46 | 54.66060 | -6.21107 | 275 ft | 7 kts | 66° |
| 2026-04-26 12:46 | 54.66078 | -6.21039 | 272 ft | 7 kts | 65° |
| 2026-04-26 12:47 | 54.66109 | -6.20925 | 272 ft | 14 kts | 65° |
| 2026-04-26 12:47 | 54.66159 | -6.20740 | 275 ft | 18 kts | 65° |
| 2026-04-26 12:47 | 54.66209 | -6.20553 | 272 ft | 16 kts | 65° |
| 2026-04-26 12:47 | 54.66254 | -6.20386 | 272 ft | 14 kts | 65° |
| 2026-04-26 12:48 | 54.66294 | -6.20238 | 272 ft | 13 kts | 65° |
| 2026-04-26 12:48 | 54.66330 | -6.20103 | 272 ft | 12 kts | 65° |
| 2026-04-26 12:48 | 54.66364 | -6.19978 | 272 ft | 11 kts | 65° |
| 2026-04-26 12:48 | 54.66394 | -6.19858 | 272 ft | 12 kts | 75° |
| 2026-04-26 12:49 | 54.66364 | -6.19714 | 272 ft | 13 kts | 144° |
| 2026-04-26 12:49 | 54.66302 | -6.19660 | 272 ft | 8 kts | 154° |
| 2026-04-26 12:49 | 54.66261 | -6.19682 | 272 ft | 6 kts | 234° |
| 2026-04-26 12:49 | 54.66253 | -6.19711 | 272 ft | 0 kts | 244° |
| 2026-04-26 12:50 | 54.66196 | -6.19921 | 272 ft | 55 kts | 245° |
| 2026-04-26 12:50 | 54.65939 | -6.20878 | 272 ft | 118 kts | 245° |
| 2026-04-26 12:50 | 54.65520 | -6.22438 | 309 ft | 163 kts | 247° |
| 2026-04-26 12:51 | 54.65061 | -6.24221 | 959 ft | 162 kts | 246° |
| 2026-04-26 12:51 | 54.64583 | -6.26002 | 1600 ft | 168 kts | 244° |
| 2026-04-26 12:51 | 54.64004 | -6.27900 | 1910 ft | 190 kts | 230° |
| 2026-04-26 12:51 | 54.62813 | -6.29020 | 2200 ft | 211 kts | 185° |
| 2026-04-26 12:52 | 54.61341 | -6.28315 | 2540 ft | 239 kts | 144° |
| 2026-04-26 12:52 | 54.60362 | -6.25891 | 3082 ft | 261 kts | 105° |
| 2026-04-26 12:52 | 54.60414 | -6.22753 | 3912 ft | 268 kts | 72° |
| 2026-04-26 12:52 | 54.61177 | -6.19800 | 4804 ft | 272 kts | 60° |
| 2026-04-26 12:53 | 54.62155 | -6.16983 | 5687 ft | 276 kts | 58° |
| 2026-04-26 12:53 | 54.63166 | -6.14116 | 6552 ft | 282 kts | 60° |
| 2026-04-26 12:53 | 54.64137 | -6.11149 | 7334 ft | 287 kts | 63° |
| 2026-04-26 12:53 | 54.65063 | -6.08058 | 8141 ft | 292 kts | 65° |
| 2026-04-26 12:54 | 54.65946 | -6.04881 | 8950 ft | 296 kts | 66° |
| 2026-04-26 12:54 | 54.66807 | -6.01624 | 9761 ft | 301 kts | 67° |
| 2026-04-26 12:54 | 54.67664 | -5.98295 | 10510 ft | 306 kts | 68° |
| 2026-04-26 12:54 | 54.68546 | -5.94817 | 10815 ft | 329 kts | 68° |
| 2026-04-26 12:55 | 54.69476 | -5.91127 | 11185 ft | 345 kts | 68° |
| 2026-04-26 12:55 | 54.70446 | -5.87295 | 11858 ft | 351 kts | 67° |
| 2026-04-26 12:55 | 54.71446 | -5.83361 | 12588 ft | 355 kts | 67° |
| 2026-04-26 12:55 | 54.72435 | -5.79478 | 13306 ft | 359 kts | 66° |
| 2026-04-26 12:56 | 54.73447 | -5.75498 | 14022 ft | 363 kts | 66° |
| 2026-04-26 12:56 | 54.74465 | -5.71476 | 14648 ft | 367 kts | 66° |
| 2026-04-26 12:56 | 54.75492 | -5.67400 | 15098 ft | 371 kts | 66° |
| 2026-04-26 12:56 | 54.76525 | -5.63299 | 15248 ft | 369 kts | 66° |
| 2026-04-26 12:57 | 54.77529 | -5.59310 | 15287 ft | 358 kts | 66° |
| 2026-04-26 12:57 | 54.78522 | -5.55359 | 15284 ft | 356 kts | 66° |
| 2026-04-26 12:57 | 54.79509 | -5.51430 | 15287 ft | 355 kts | 66° |
| 2026-04-26 12:58 | 54.81470 | -5.43574 | 15290 ft | 355 kts | 66° |
| 2026-04-26 12:58 | 54.82447 | -5.39648 | 15288 ft | 355 kts | 66° |
| 2026-04-26 12:58 | 54.83422 | -5.35726 | 15285 ft | 355 kts | 66° |
| 2026-04-26 12:58 | 54.84400 | -5.31795 | 15289 ft | 355 kts | 66° |
| 2026-04-26 12:59 | 54.85375 | -5.27869 | 15306 ft | 355 kts | 66° |
| 2026-04-26 12:59 | 54.86351 | -5.23932 | 15297 ft | 355 kts | 67° |
| 2026-04-26 12:59 | 54.87422 | -5.20083 | 15308 ft | 355 kts | 58° |
| 2026-04-26 12:59 | 54.88897 | -5.16733 | 15295 ft | 354 kts | 45° |
| 2026-04-26 13:00 | 54.90792 | -5.13964 | 15303 ft | 352 kts | 31° |
| 2026-04-26 13:00 | 54.92903 | -5.11950 | 15298 ft | 351 kts | 24° |
| 2026-04-26 13:00 | 54.95094 | -5.10069 | 15294 ft | 351 kts | 24° |
| 2026-04-26 13:00 | 54.97281 | -5.08182 | 15293 ft | 351 kts | 24° |
| 2026-04-26 13:01 | 54.99465 | -5.06291 | 15292 ft | 351 kts | 24° |
| 2026-04-26 13:01 | 55.01649 | -5.04393 | 15292 ft | 351 kts | 24° |
| 2026-04-26 13:01 | 55.03839 | -5.02486 | 15293 ft | 352 kts | 24° |
| 2026-04-26 13:01 | 55.06030 | -5.00574 | 15296 ft | 352 kts | 25° |
| 2026-04-26 13:02 | 55.08204 | -4.98619 | 15295 ft | 352 kts | 29° |
| 2026-04-26 13:02 | 55.10160 | -4.96048 | 15297 ft | 354 kts | 43° |
| 2026-04-26 13:02 | 55.11754 | -4.92766 | 15286 ft | 355 kts | 56° |
| 2026-04-26 13:02 | 55.12906 | -4.88964 | 15287 ft | 355 kts | 67° |
| 2026-04-26 13:03 | 55.13889 | -4.84999 | 15289 ft | 355 kts | 66° |
| 2026-04-26 13:03 | 55.14876 | -4.81038 | 15289 ft | 355 kts | 66° |
| 2026-04-26 13:03 | 55.15862 | -4.77082 | 15287 ft | 355 kts | 66° |
| 2026-04-26 13:03 | 55.16851 | -4.73113 | 15288 ft | 355 kts | 66° |
| 2026-04-26 13:04 | 55.17836 | -4.69151 | 15303 ft | 356 kts | 66° |
| 2026-04-26 13:04 | 55.18806 | -4.65230 | 15296 ft | 356 kts | 67° |
| 2026-04-26 13:04 | 55.19785 | -4.61257 | 15290 ft | 356 kts | 67° |
| 2026-04-26 13:04 | 55.20763 | -4.57280 | 15287 ft | 356 kts | 67° |
| 2026-04-26 13:05 | 55.21742 | -4.53289 | 15286 ft | 356 kts | 67° |
| 2026-04-26 13:05 | 55.22720 | -4.49299 | 15285 ft | 357 kts | 67° |
| 2026-04-26 13:05 | 55.23697 | -4.45303 | 15285 ft | 357 kts | 67° |
| 2026-04-26 13:05 | 55.24674 | -4.41310 | 15284 ft | 357 kts | 67° |
| 2026-04-26 13:06 | 55.25650 | -4.37313 | 15273 ft | 357 kts | 67° |
| 2026-04-26 13:06 | 55.26631 | -4.33324 | 15276 ft | 357 kts | 64° |
| 2026-04-26 13:06 | 55.28006 | -4.29723 | 15278 ft | 356 kts | 45° |
| 2026-04-26 13:06 | 55.29806 | -4.26757 | 15278 ft | 355 kts | 41° |
| 2026-04-26 13:07 | 55.31634 | -4.23838 | 15280 ft | 355 kts | 41° |
| 2026-04-26 13:07 | 55.33468 | -4.20928 | 15282 ft | 355 kts | 41° |
| 2026-04-26 13:07 | 55.35296 | -4.18030 | 15179 ft | 352 kts | 41° |
| 2026-04-26 13:07 | 55.37106 | -4.15151 | 14767 ft | 351 kts | 41° |
| 2026-04-26 13:08 | 55.38913 | -4.12259 | 14351 ft | 351 kts | 41° |
| 2026-04-26 13:08 | 55.40717 | -4.09371 | 13969 ft | 349 kts | 41° |
| 2026-04-26 13:08 | 55.42488 | -4.06537 | 13516 ft | 349 kts | 41° |
| 2026-04-26 13:08 | 55.44274 | -4.03681 | 13100 ft | 347 kts | 41° |
| 2026-04-26 13:09 | 55.46046 | -4.00841 | 12714 ft | 345 kts | 41° |
| 2026-04-26 13:09 | 55.47816 | -3.98000 | 12319 ft | 342 kts | 41° |
| 2026-04-26 13:09 | 55.49584 | -3.95158 | 11903 ft | 341 kts | 41° |
| 2026-04-26 13:09 | 55.51338 | -3.92336 | 11437 ft | 341 kts | 42° |
| 2026-04-26 13:10 | 55.53075 | -3.89535 | 11010 ft | 340 kts | 41° |
| 2026-04-26 13:10 | 55.54808 | -3.86735 | 10762 ft | 333 kts | 41° |
| 2026-04-26 13:10 | 55.56483 | -3.84022 | 10541 ft | 320 kts | 41° |
| 2026-04-26 13:10 | 55.58108 | -3.81386 | 9981 ft | 315 kts | 41° |
| 2026-04-26 13:11 | 55.59712 | -3.78780 | 9346 ft | 311 kts | 42° |
| 2026-04-26 13:11 | 55.61289 | -3.76213 | 8792 ft | 305 kts | 42° |
| 2026-04-26 13:11 | 55.62828 | -3.73709 | 8258 ft | 297 kts | 42° |
| 2026-04-26 13:11 | 55.64350 | -3.71234 | 7640 ft | 294 kts | 42° |
| 2026-04-26 13:12 | 55.65836 | -3.68815 | 7193 ft | 285 kts | 42° |
| 2026-04-26 13:12 | 55.67400 | -3.66885 | 6789 ft | 273 kts | 21° |
| 2026-04-26 13:12 | 55.69204 | -3.66229 | 6382 ft | 263 kts | 356° |
| 2026-04-26 13:12 | 55.70970 | -3.66899 | 5933 ft | 260 kts | 332° |
| 2026-04-26 13:13 | 55.72451 | -3.68667 | 5533 ft | 255 kts | 317° |
| 2026-04-26 13:13 | 55.73786 | -3.70613 | 5478 ft | 241 kts | 318° |
| 2026-04-26 13:13 | 55.75060 | -3.72459 | 5387 ft | 232 kts | 317° |
| 2026-04-26 13:13 | 55.76272 | -3.74322 | 5229 ft | 232 kts | 319° |
| 2026-04-26 13:14 | 55.77656 | -3.75685 | 5150 ft | 223 kts | 339° |
| 2026-04-26 13:14 | 55.79138 | -3.76119 | 5114 ft | 212 kts | 358° |
| 2026-04-26 13:14 | 55.80553 | -3.75725 | 4980 ft | 202 kts | 16° |
| 2026-04-26 13:14 | 55.81788 | -3.74628 | 4786 ft | 197 kts | 34° |
| 2026-04-26 13:15 | 55.82764 | -3.72962 | 4558 ft | 194 kts | 53° |
| 2026-04-26 13:15 | 55.83480 | -3.70952 | 4314 ft | 191 kts | 59° |
| 2026-04-26 13:15 | 55.84173 | -3.68943 | 4059 ft | 190 kts | 59° |
| 2026-04-26 13:15 | 55.84630 | -3.67614 | 3890 ft | 190 kts | 59° |
| 2026-04-26 13:16 | 55.85545 | -3.64952 | 3554 ft | 188 kts | 59° |
| 2026-04-26 13:16 | 55.86224 | -3.62972 | 3292 ft | 187 kts | 59° |
| 2026-04-26 13:16 | 55.86901 | -3.60997 | 3044 ft | 186 kts | 59° |
| 2026-04-26 13:16 | 55.87576 | -3.59026 | 2801 ft | 186 kts | 59° |
| 2026-04-26 13:17 | 55.88891 | -3.55183 | 2296 ft | 175 kts | 59° |
| 2026-04-26 13:17 | 55.89509 | -3.53377 | 2061 ft | 165 kts | 59° |
| 2026-04-26 13:18 | 55.90624 | -3.50110 | 1627 ft | 149 kts | 59° |
| 2026-04-26 13:18 | 55.91156 | -3.48549 | 1433 ft | 146 kts | 59° |
| 2026-04-26 13:18 | 55.92205 | -3.45470 | 1027 ft | 144 kts | 58° |
| 2026-04-26 13:19 | 55.92725 | -3.43941 | 827 ft | 143 kts | 58° |
| 2026-04-26 13:19 | 55.93241 | -3.42426 | 641 ft | 143 kts | 58° |
| 2026-04-26 13:19 | 55.93754 | -3.40915 | 450 ft | 142 kts | 58° |
| 2026-04-26 13:19 | 55.94265 | -3.39411 | 242 ft | 141 kts | 58° |
| 2026-04-26 13:20 | 55.94799 | -3.37838 | 318 ft | 164 kts | 58° |
| 2026-04-26 13:20 | 55.95459 | -3.35889 | 624 ft | 201 kts | 59° |
| 2026-04-26 13:20 | 55.96226 | -3.33563 | 950 ft | 234 kts | 59° |
| 2026-04-26 13:20 | 55.97184 | -3.31183 | 1876 ft | 232 kts | 41° |
| 2026-04-26 13:21 | 55.98595 | -3.29826 | 2601 ft | 233 kts | 10° |
| 2026-04-26 13:21 | 55.99651 | -3.29715 | 2801 ft | 229 kts | 348° |
| 2026-04-26 13:21 | 56.01430 | -3.31482 | 2983 ft | 219 kts | 303° |
| 2026-04-26 13:21 | 56.01962 | -3.33912 | 3009 ft | 213 kts | 270° |
| 2026-04-26 13:22 | 56.01643 | -3.36451 | 3006 ft | 211 kts | 244° |
| 2026-04-26 13:22 | 56.00962 | -3.38781 | 3009 ft | 212 kts | 240° |
| 2026-04-26 13:22 | 56.00232 | -3.41072 | 3011 ft | 212 kts | 239° |
| 2026-04-26 13:22 | 55.99496 | -3.43364 | 3006 ft | 213 kts | 239° |
| 2026-04-26 13:23 | 55.98759 | -3.45663 | 3012 ft | 214 kts | 239° |
| 2026-04-26 13:23 | 55.98019 | -3.47963 | 3010 ft | 213 kts | 239° |
| 2026-04-26 13:23 | 55.97282 | -3.50258 | 3012 ft | 213 kts | 239° |
| 2026-04-26 13:23 | 55.96545 | -3.52551 | 3011 ft | 213 kts | 239° |
| 2026-04-26 13:24 | 55.95808 | -3.54847 | 3012 ft | 213 kts | 239° |
| 2026-04-26 13:24 | 55.95069 | -3.57134 | 3009 ft | 213 kts | 239° |
| 2026-04-26 13:24 | 55.94330 | -3.59425 | 3010 ft | 213 kts | 239° |
| 2026-04-26 13:24 | 55.93593 | -3.61707 | 3006 ft | 213 kts | 239° |
| 2026-04-26 13:25 | 55.92854 | -3.63995 | 3009 ft | 213 kts | 239° |
| 2026-04-26 13:25 | 55.92116 | -3.66276 | 3011 ft | 212 kts | 238° |
| 2026-04-26 13:25 | 55.91141 | -3.68227 | 3013 ft | 212 kts | 213° |
| 2026-04-26 13:25 | 55.89757 | -3.69090 | 3010 ft | 215 kts | 185° |
| 2026-04-26 13:26 | 55.88263 | -3.68855 | 3009 ft | 218 kts | 162° |
| 2026-04-26 13:26 | 55.87013 | -3.67394 | 3012 ft | 223 kts | 132° |
| 2026-04-26 13:26 | 55.86348 | -3.64911 | 3015 ft | 228 kts | 99° |
| 2026-04-26 13:26 | 55.86538 | -3.62129 | 3009 ft | 231 kts | 65° |
| 2026-04-26 13:27 | 55.87335 | -3.59631 | 2833 ft | 232 kts | 58° |
| 2026-04-26 13:27 | 55.88192 | -3.57206 | 2543 ft | 228 kts | 58° |
| 2026-04-26 13:27 | 55.89009 | -3.54840 | 2248 ft | 220 kts | 58° |
| 2026-04-26 13:27 | 55.89781 | -3.52585 | 1942 ft | 207 kts | 59° |
| 2026-04-26 13:28 | 55.90501 | -3.50473 | 1704 ft | 190 kts | 58° |
| 2026-04-26 13:28 | 55.91154 | -3.48558 | 1464 ft | 170 kts | 59° |
| 2026-04-26 13:28 | 55.91740 | -3.46837 | 1205 ft | 155 kts | 58° |
| 2026-04-26 13:28 | 55.92283 | -3.45233 | 963 ft | 148 kts | 58° |
| 2026-04-26 13:29 | 55.92802 | -3.43693 | 755 ft | 143 kts | 58° |
| 2026-04-26 13:29 | 55.93142 | -3.42689 | 649 ft | 143 kts | 58° |
| 2026-04-26 13:29 | 55.93831 | -3.40680 | 395 ft | 142 kts | 57° |
| 2026-04-26 13:29 | 55.94343 | -3.39184 | 218 ft | 141 kts | 58° |
| 2026-04-26 13:30 | 55.94839 | -3.37728 | 112 ft | 127 kts | 58° |
| 2026-04-26 13:30 | 55.95138 | -3.36842 | 113 ft | 41 kts | 60° |
| 2026-04-26 13:30 | 55.95244 | -3.36528 | 112 ft | 18 kts | 59° |
| 2026-04-26 13:30 | 55.95244 | -3.36405 | 111 ft | 9 kts | 141° |
| 2026-04-26 13:31 | 55.95213 | -3.36372 | 113 ft | 2 kts | 149° |
| 2026-04-26 13:31 | 55.95201 | -3.36359 | 115 ft | 4 kts | 149° |
| 2026-04-26 13:31 | 55.95175 | -3.36331 | 115 ft | 0 kts | 149° |
| 2026-04-26 13:32 | 55.95170 | -3.36326 | 112 ft | 4 kts | 148° |
| 2026-04-26 13:32 | 55.95124 | -3.36322 | 116 ft | 7 kts | 212° |
| 2026-04-26 13:32 | 55.95097 | -3.36386 | 115 ft | 6 kts | 229° |
| 2026-04-26 13:33 | 55.95063 | -3.36395 | 115 ft | 4 kts | 165° |
| 2026-04-26 13:33 | 55.95035 | -3.36385 | 115 ft | 6 kts | 181° |
| 2026-04-26 13:33 | 55.94987 | -3.36475 | 112 ft | 15 kts | 238° |
| 2026-04-26 13:33 | 55.94934 | -3.36634 | 114 ft | 14 kts | 239° |
| 2026-04-26 13:34 | 55.94890 | -3.36758 | 115 ft | 8 kts | 229° |
| 2026-04-26 13:34 | 55.94841 | -3.36778 | 116 ft | 7 kts | 181° |
| 2026-04-26 13:34 | 55.94797 | -3.36778 | 116 ft | 6 kts | 179° |
| 2026-04-26 13:34 | 55.94784 | -3.36775 | 116 ft | 5 kts | 171° |
| 2026-04-26 13:35 | 55.94751 | -3.36719 | 116 ft | 3 kts | 108° |
| 2026-04-26 13:35 | 55.94751 | -3.36657 | 116 ft | 5 kts | 88° |
| 2026-04-26 13:35 | 55.94752 | -3.36624 | 116 ft | 1 kts | 89° |